createdAt,value
2022-11-27T00:01:52.180Z,11.03
2022-11-27T00:04:19.539Z,17.90
2022-11-27T00:06:46.109Z,13.87
2022-11-27T00:09:14.154Z,12.13
2022-11-27T00:11:40.817Z,9.80
2022-11-27T00:14:07.961Z,10.70
2022-11-27T00:16:34.524Z,12.07
2022-11-27T00:19:01.055Z,12.73
2022-11-27T00:21:32.533Z,11.63
2022-11-27T00:24:00.320Z,9.87
2022-11-27T00:26:27.956Z,11.50
2022-11-27T00:28:56.144Z,10.80
2022-11-27T00:31:27.194Z,11.20
2022-11-27T00:33:54.407Z,11.33
2022-11-27T00:36:20.916Z,13.23
2022-11-27T00:38:47.430Z,13.20
2022-11-27T00:41:18.603Z,12.57
2022-11-27T00:43:45.756Z,12.77
2022-11-27T00:46:13.661Z,13.37
2022-11-27T00:48:40.621Z,14.03
2022-11-27T00:51:08.081Z,13.40
2022-11-27T00:53:34.745Z,13.70
2022-11-27T00:56:01.362Z,14.03
2022-11-27T00:58:28.288Z,13.47
2022-11-27T01:00:55.782Z,14.60
2022-11-27T01:03:22.705Z,14.53
2022-11-27T01:05:49.498Z,14.20
2022-11-27T01:08:16.265Z,14.07
2022-11-27T01:10:54.899Z,14.77
2022-11-27T01:13:29.717Z,13.50
2022-11-27T01:16:16.443Z,14.30
2022-11-27T01:18:43.851Z,15.07
2022-11-27T01:21:10.891Z,16.23
2022-11-27T01:23:37.357Z,15.67
2022-11-27T01:26:04.713Z,15.87
2022-11-27T01:28:31.344Z,15.47
2022-11-27T01:30:58.073Z,15.53
2022-11-27T01:33:24.892Z,15.13
2022-11-27T01:35:58.580Z,15.87
2022-11-27T01:38:25.217Z,15.90
2022-11-27T01:41:02.047Z,15.13
2022-11-27T01:43:38.234Z,16.53
2022-11-27T01:46:05.228Z,15.50
2022-11-27T01:48:32.111Z,15.77
2022-11-27T01:50:58.640Z,15.07
2022-11-27T01:53:25.351Z,16.20
2022-11-27T01:55:55.675Z,16.43
2022-11-27T01:58:25.137Z,15.13
2022-11-27T02:00:51.696Z,15.80
2022-11-27T02:03:18.316Z,15.93
2022-11-27T02:05:44.856Z,15.63
2022-11-27T02:08:12.842Z,15.00
2022-11-27T02:10:56.224Z,15.67
2022-11-27T02:13:31.730Z,14.77
2022-11-27T02:15:58.423Z,15.30
2022-11-27T02:18:45.219Z,15.10
2022-11-27T02:21:27.499Z,14.60
2022-11-27T02:23:54.235Z,13.80
2022-11-27T02:26:29.865Z,13.73
2022-11-27T02:28:56.465Z,12.63
2022-11-27T02:31:31.267Z,13.17
2022-11-27T02:34:02.909Z,12.73
2022-11-27T02:36:30.764Z,14.10
2022-11-27T02:39:04.803Z,12.70
2022-11-27T02:41:39.919Z,13.03
2022-11-27T02:44:07.700Z,13.03
2022-11-27T02:46:34.610Z,12.60
2022-11-27T02:49:06.628Z,13.03
2022-11-27T02:51:37.322Z,12.97
2022-11-27T02:54:05.586Z,13.23
2022-11-27T02:56:33.803Z,13.57
2022-11-27T02:59:06.472Z,12.47
2022-11-27T03:01:35.084Z,12.40
2022-11-27T03:04:03.013Z,12.60
2022-11-27T03:06:49.769Z,12.80
2022-11-27T03:09:18.852Z,12.93
2022-11-27T03:11:45.607Z,12.70
2022-11-27T03:14:12.491Z,12.03
2022-11-27T03:16:50.901Z,12.27
2022-11-27T03:19:23.468Z,11.90
2022-11-27T03:21:55.735Z,11.10
2022-11-27T03:24:22.496Z,11.03
2022-11-27T03:26:49.089Z,11.30
2022-11-27T03:29:24.972Z,11.73
2022-11-27T03:31:51.983Z,10.77
2022-11-27T03:34:19.013Z,12.33
2022-11-27T03:36:45.979Z,11.87
2022-11-27T03:39:12.561Z,12.60
2022-11-27T03:41:44.832Z,12.07
2022-11-27T03:44:14.200Z,12.37
2022-11-27T03:46:43.675Z,11.93
2022-11-27T03:49:28.651Z,11.83
2022-11-27T03:52:02.173Z,11.67
2022-11-27T03:54:48.918Z,12.33
2022-11-27T03:57:23.175Z,11.20
2022-11-27T03:59:51.499Z,11.23
2022-11-27T04:02:25.884Z,10.67
2022-11-27T04:04:52.388Z,10.20
2022-11-27T04:07:18.959Z,10.40
2022-11-27T04:09:45.523Z,10.50
2022-11-27T04:12:12.061Z,9.47
2022-11-27T04:14:38.954Z,10.47
2022-11-27T04:17:05.653Z,10.00
2022-11-27T04:19:32.147Z,10.63
2022-11-27T04:21:58.842Z,10.77
2022-11-27T04:24:25.358Z,11.47
2022-11-27T04:26:51.863Z,10.63
2022-11-27T04:29:18.356Z,11.43
2022-11-27T04:31:44.917Z,11.03
2022-11-27T04:34:11.490Z,11.67
2022-11-27T04:36:39.629Z,11.10
2022-11-27T04:39:06.512Z,11.00
2022-11-27T04:41:33.015Z,10.77
2022-11-27T04:43:59.657Z,10.50
2022-11-27T04:46:26.156Z,10.20
2022-11-27T04:48:52.734Z,10.03
2022-11-27T04:51:19.242Z,11.07
2022-11-27T04:53:45.982Z,10.03
2022-11-27T04:56:12.495Z,9.50
2022-11-27T04:58:39.000Z,10.90
2022-11-27T05:01:06.302Z,10.40
2022-11-27T05:03:32.810Z,9.50
2022-11-27T05:05:59.357Z,9.53
2022-11-27T05:08:26.166Z,10.13
2022-11-27T05:11:00.075Z,10.03
2022-11-27T05:13:26.586Z,10.20
2022-11-27T05:15:53.159Z,9.97
2022-11-27T05:18:19.707Z,10.50
2022-11-27T05:20:46.281Z,10.13
2022-11-27T05:23:12.969Z,10.60
2022-11-27T05:25:39.464Z,9.33
2022-11-27T05:28:05.957Z,9.70
2022-11-27T05:30:32.466Z,9.90
2022-11-27T05:32:58.921Z,10.50
2022-11-27T05:35:25.520Z,10.93
2022-11-27T05:37:51.990Z,9.87
2022-11-27T05:40:18.511Z,8.93
2022-11-27T05:42:45.037Z,9.07
2022-11-27T05:45:11.546Z,9.20
2022-11-27T05:47:38.056Z,9.83
2022-11-27T05:50:04.806Z,9.37
2022-11-27T05:52:31.332Z,9.03
2022-11-27T05:54:57.896Z,10.27
2022-11-27T05:57:24.398Z,9.57
2022-11-27T05:59:50.902Z,9.60
2022-11-27T06:02:22.530Z,9.40
2022-11-27T06:04:51.616Z,10.30
2022-11-27T06:07:18.346Z,9.50
2022-11-27T06:09:44.907Z,9.30
2022-11-27T06:12:11.374Z,10.03
2022-11-27T06:14:38.186Z,9.63
2022-11-27T06:17:04.792Z,9.33
2022-11-27T06:19:31.466Z,10.17
2022-11-27T06:21:58.257Z,9.47
2022-11-27T06:24:24.774Z,9.87
2022-11-27T06:26:51.300Z,10.03
2022-11-27T06:29:17.803Z,9.17
2022-11-27T06:31:44.397Z,10.17
2022-11-27T06:34:11.588Z,10.07
2022-11-27T06:36:38.745Z,9.70
2022-11-27T06:39:05.714Z,9.60
2022-11-27T06:41:32.567Z,9.27
2022-11-27T06:43:59.774Z,9.07
2022-11-27T06:46:26.558Z,9.80
2022-11-27T06:48:53.948Z,8.93
2022-11-27T06:51:22.257Z,9.80
2022-11-27T06:53:48.825Z,10.47
2022-11-27T06:56:16.709Z,10.13
2022-11-27T06:58:43.575Z,9.50
2022-11-27T07:01:12.410Z,9.63
2022-11-27T07:03:39.170Z,9.50
2022-11-27T07:06:06.641Z,9.57
2022-11-27T07:08:33.998Z,8.97
2022-11-27T07:11:03.238Z,11.80
2022-11-27T07:13:30.202Z,9.53
2022-11-27T07:15:59.616Z,8.37
2022-11-27T07:18:26.161Z,9.67
2022-11-27T07:20:56.391Z,9.33
2022-11-27T07:23:23.268Z,8.83
2022-11-27T07:25:49.799Z,8.93
2022-11-27T07:28:19.007Z,9.00
2022-11-27T07:30:46.006Z,8.93
2022-11-27T07:33:12.648Z,8.60
2022-11-27T07:35:39.130Z,8.93
2022-11-27T07:38:05.644Z,10.23
2022-11-27T07:40:32.155Z,9.80
2022-11-27T07:42:58.715Z,9.90
2022-11-27T07:45:25.277Z,10.67
2022-11-27T07:47:51.819Z,10.20
2022-11-27T07:50:18.342Z,9.30
2022-11-27T07:52:44.809Z,10.23
2022-11-27T07:55:11.335Z,9.27
2022-11-27T07:57:37.870Z,9.17
2022-11-27T08:00:05.105Z,8.77
2022-11-27T08:02:31.593Z,8.67
2022-11-27T08:04:58.102Z,8.67
2022-11-27T08:07:28.738Z,21.30
2022-11-27T08:09:55.399Z,10.67
2022-11-27T08:12:23.297Z,9.10
2022-11-27T08:14:49.837Z,9.97
2022-11-27T08:17:16.357Z,9.33
2022-11-27T08:19:42.927Z,10.67
2022-11-27T08:22:13.205Z,10.13
2022-11-27T08:24:39.979Z,9.57
2022-11-27T08:27:06.723Z,10.00
2022-11-27T08:29:34.121Z,9.73
2022-11-27T08:32:00.756Z,9.67
2022-11-27T08:34:27.299Z,11.73
2022-11-27T08:36:53.807Z,10.47
2022-11-27T08:39:20.401Z,9.80
2022-11-27T08:41:46.941Z,9.03
2022-11-27T08:44:13.438Z,10.87
2022-11-27T08:46:39.938Z,10.30
2022-11-27T08:49:06.454Z,11.73
2022-11-27T08:51:32.966Z,10.73
2022-11-27T08:53:59.475Z,13.00
2022-11-27T08:56:26.166Z,12.57
2022-11-27T08:58:52.827Z,12.70
2022-11-27T09:01:23.647Z,13.20
2022-11-27T09:03:50.531Z,13.10
2022-11-27T09:06:18.349Z,12.00
2022-11-27T09:08:45.037Z,11.57
2022-11-27T09:11:12.395Z,13.43
2022-11-27T09:13:40.333Z,12.13
2022-11-27T09:16:07.957Z,13.03
2022-11-27T09:18:34.809Z,12.23
2022-11-27T09:21:02.321Z,11.37
2022-11-27T09:23:29.679Z,10.60
2022-11-27T09:26:00.174Z,10.80
2022-11-27T09:28:31.102Z,10.90
2022-11-27T09:30:59.195Z,11.80
2022-11-27T09:33:26.320Z,11.63
2022-11-27T09:35:52.938Z,9.73
2022-11-27T09:38:19.965Z,11.27
2022-11-27T09:40:49.378Z,9.87
2022-11-27T09:43:16.718Z,9.80
2022-11-27T09:45:55.500Z,10.43
2022-11-27T09:48:33.299Z,9.77
2022-11-27T09:53:58.473Z,10.33
2022-11-27T10:03:30.240Z,10.53
2022-11-27T10:06:35.567Z,10.03
2022-11-27T10:09:06.997Z,10.50
2022-11-27T10:11:43.126Z,10.13
2022-11-27T10:14:21.626Z,9.90
2022-11-27T10:16:54.033Z,9.53
2022-11-27T10:19:32.633Z,10.60
2022-11-27T10:25:27.731Z,10.27
2022-11-27T10:27:54.220Z,9.20
2022-11-27T10:30:21.462Z,8.30
2022-11-27T10:32:57.505Z,8.87
2022-11-27T10:35:25.457Z,8.40
2022-11-27T10:37:59.773Z,8.67
2022-11-27T10:40:37.487Z,8.73
2022-11-27T10:43:09.935Z,8.00
2022-11-27T10:45:39.317Z,7.17
2022-11-27T10:48:06.273Z,8.17
2022-11-27T10:50:33.777Z,7.43
2022-11-27T10:53:02.527Z,6.60
2022-11-27T10:55:46.467Z,7.77
2022-11-27T10:58:32.628Z,7.60
2022-11-27T11:01:07.340Z,7.67
2022-11-27T11:03:34.000Z,7.17
2022-11-27T11:06:20.240Z,8.03
2022-11-27T11:08:48.553Z,8.03
2022-11-27T11:11:24.827Z,7.63
2022-11-27T11:13:51.531Z,8.00
2022-11-27T11:16:24.196Z,8.13
2022-11-27T11:18:52.176Z,8.70
2022-11-27T11:21:29.063Z,8.33
2022-11-27T11:23:55.571Z,8.70
2022-11-27T11:26:24.809Z,8.30
2022-11-27T11:28:52.976Z,7.67
2022-11-27T11:31:20.951Z,7.67
2022-11-27T11:33:50.016Z,7.07
2022-11-27T11:36:16.637Z,7.17
2022-11-27T11:38:45.655Z,7.37
2022-11-27T11:41:13.631Z,6.70
2022-11-27T11:43:40.342Z,7.23
2022-11-27T11:46:17.881Z,6.10
2022-11-27T11:48:54.970Z,6.70
2022-11-27T11:51:30.132Z,7.73
2022-11-27T11:54:11.770Z,7.40
2022-11-27T11:56:40.603Z,7.20
2022-11-27T11:59:12.937Z,6.43
2022-11-27T12:01:54.044Z,7.20
2022-11-27T12:04:20.808Z,7.77
2022-11-27T12:07:15.042Z,7.13
2022-11-27T12:09:46.399Z,6.57
2022-11-27T12:12:28.170Z,6.17
2022-11-27T12:14:54.651Z,5.97
2022-11-27T12:17:21.173Z,6.47
2022-11-27T12:19:47.655Z,6.20
2022-11-27T12:22:14.126Z,6.47
2022-11-27T12:24:40.863Z,5.80
2022-11-27T12:27:13.355Z,5.67
2022-11-27T12:29:51.304Z,5.93
2022-11-27T12:32:23.867Z,21.33
2022-11-27T12:34:59.150Z,22.10
2022-11-27T12:37:40.848Z,19.47
2022-11-27T12:40:31.091Z,15.60
2022-11-27T12:43:04.426Z,10.87
2022-11-27T12:45:37.177Z,12.13
2022-11-27T12:48:17.229Z,10.87
2022-11-27T12:50:46.862Z,8.50
2022-11-27T12:53:31.746Z,9.10
2022-11-27T12:55:58.235Z,7.07
2022-11-27T12:58:28.371Z,6.23
2022-11-27T13:01:00.997Z,5.83
2022-11-27T13:03:50.721Z,5.30
2022-11-27T13:06:19.878Z,5.10
2022-11-27T13:08:52.394Z,5.17
2022-11-27T13:11:20.262Z,5.03
2022-11-27T13:13:48.392Z,4.20
2022-11-27T13:16:33.527Z,4.33
2022-11-27T13:19:05.895Z,4.33
2022-11-27T13:21:33.661Z,4.03
2022-11-27T13:24:00.972Z,4.50
2022-11-27T13:26:49.073Z,4.33
2022-11-27T13:29:16.119Z,4.40
2022-11-27T13:31:43.568Z,15.27
2022-11-27T13:34:16.651Z,6.07
2022-11-27T13:36:47.420Z,7.93
2022-11-27T13:39:22.167Z,5.33
2022-11-27T13:41:48.903Z,5.50
2022-11-27T13:44:24.127Z,4.43
2022-11-27T13:46:54.788Z,4.30
2022-11-27T13:49:24.915Z,4.20
2022-11-27T13:51:51.527Z,4.23
2022-11-27T13:54:22.290Z,4.00
2022-11-27T13:56:52.464Z,4.33
2022-11-27T13:59:21.124Z,4.70
2022-11-27T14:02:08.022Z,4.70
2022-11-27T14:04:34.978Z,4.50
2022-11-27T14:07:08.175Z,4.50
2022-11-27T14:09:36.787Z,5.23
2022-11-27T14:12:13.322Z,5.07
2022-11-27T14:14:41.782Z,5.37
2022-11-27T14:17:23.740Z,5.13
2022-11-27T14:19:58.588Z,4.50
2022-11-27T14:23:11.183Z,5.07
2022-11-27T14:25:38.772Z,5.27
2022-11-27T14:28:11.646Z,4.40
2022-11-27T14:30:41.057Z,4.03
2022-11-27T14:33:16.912Z,3.60
2022-11-27T14:35:47.708Z,8.80
2022-11-27T14:38:15.454Z,10.70
2022-11-27T14:40:42.694Z,19.00
2022-11-27T14:43:10.231Z,21.87
2022-11-27T14:45:37.590Z,12.93
2022-11-27T14:48:04.232Z,9.47
2022-11-27T14:50:30.804Z,10.67
2022-11-27T14:52:57.804Z,7.57
2022-11-27T14:55:24.579Z,7.67
2022-11-27T14:57:51.708Z,5.83
2022-11-27T15:00:27.159Z,5.93
2022-11-27T15:02:54.101Z,4.90
2022-11-27T15:05:22.344Z,5.40
2022-11-27T15:07:50.933Z,4.40
2022-11-27T15:10:26.895Z,5.50
2022-11-27T15:12:53.850Z,7.30
2022-11-27T15:15:21.687Z,6.83
2022-11-27T15:17:49.944Z,6.50
2022-11-27T15:20:21.460Z,14.03
2022-11-27T15:22:49.395Z,12.27
2022-11-27T15:25:28.521Z,20.93
2022-11-27T15:27:55.032Z,30.50
2022-11-27T15:30:21.801Z,28.40
2022-11-27T15:32:52.965Z,27.30
2022-11-27T15:35:24.110Z,39.37
2022-11-27T15:37:51.618Z,42.80
2022-11-27T15:40:27.735Z,42.97
2022-11-27T15:42:54.286Z,39.17
2022-11-27T15:45:21.189Z,39.13
2022-11-27T15:47:47.782Z,34.23
2022-11-27T15:50:15.630Z,30.80
2022-11-27T15:52:42.423Z,27.17
2022-11-27T15:55:13.806Z,25.90
2022-11-27T15:57:40.326Z,24.03
2022-11-27T16:00:09.999Z,22.53
2022-11-27T16:02:39.846Z,21.50
2022-11-27T16:05:07.283Z,17.53
2022-11-27T16:07:33.870Z,12.47
2022-11-27T16:10:40.647Z,10.70
2022-11-27T16:13:07.155Z,8.37
2022-11-27T16:15:33.751Z,6.10
2022-11-27T16:18:00.348Z,5.53
2022-11-27T16:20:27.408Z,5.07
2022-11-27T16:22:53.987Z,5.50
2022-11-27T16:25:20.497Z,4.37
2022-11-27T16:27:47.047Z,4.33
2022-11-27T16:30:13.741Z,4.80
2022-11-27T16:32:40.385Z,4.90
2022-11-27T16:35:08.258Z,4.80
2022-11-27T16:37:34.950Z,4.90
2022-11-27T16:40:02.099Z,4.63
2022-11-27T16:42:28.690Z,5.77
2022-11-27T16:44:55.265Z,7.03
2022-11-27T16:47:22.068Z,6.83
2022-11-27T16:49:49.417Z,6.60
2022-11-27T16:52:16.471Z,7.03
2022-11-27T16:54:43.386Z,6.37
2022-11-27T16:57:09.973Z,5.57
2022-11-27T16:59:38.406Z,11.43
2022-11-27T17:02:05.316Z,7.00
2022-11-27T17:04:31.946Z,8.70
2022-11-27T17:07:00.048Z,7.93
2022-11-27T17:09:29.336Z,10.17
2022-11-27T17:11:55.942Z,10.23
2022-11-27T17:14:27.269Z,10.10
2022-11-27T17:16:53.921Z,10.47
2022-11-27T17:19:23.372Z,8.93
2022-11-27T17:21:49.923Z,8.80
2022-11-27T17:24:17.347Z,8.53
2022-11-27T17:26:45.594Z,9.33
2022-11-27T17:29:13.325Z,8.73
2022-11-27T17:31:40.384Z,11.73
2022-11-27T17:34:07.502Z,12.97
2022-11-27T17:36:37.061Z,12.50
2022-11-27T17:39:05.240Z,10.80
2022-11-27T17:41:32.469Z,9.93
2022-11-27T17:43:59.208Z,7.93
2022-11-27T17:46:27.293Z,15.27
2022-11-27T17:48:55.511Z,13.63
2022-11-27T17:51:22.441Z,11.13
2022-11-27T17:53:49.313Z,10.53
2022-11-27T17:56:17.191Z,11.63
2022-11-27T17:58:44.077Z,10.10
2022-11-27T18:01:18.204Z,10.23
2022-11-27T18:03:46.434Z,11.40
2022-11-27T18:06:14.967Z,9.67
2022-11-27T18:08:41.909Z,10.47
2022-11-27T18:11:10.155Z,12.37
2022-11-27T18:13:37.211Z,12.03
2022-11-27T18:16:14.563Z,9.37
2022-11-27T18:18:41.501Z,8.90
2022-11-27T18:21:11.897Z,7.80
2022-11-27T18:24:14.510Z,7.63
2022-11-27T18:26:52.467Z,9.37
2022-11-27T18:29:16.928Z,8.97
2022-11-27T18:31:43.567Z,11.57
2022-11-27T18:34:10.156Z,13.37
2022-11-27T18:36:36.628Z,11.30
2022-11-27T18:39:04.961Z,9.13
2022-11-27T18:41:31.496Z,9.93
2022-11-27T18:43:58.760Z,10.57
2022-11-27T18:46:25.484Z,9.57
2022-11-27T18:48:52.315Z,9.83
2022-11-27T18:51:20.279Z,8.73
2022-11-27T18:53:47.880Z,8.60
2022-11-27T18:56:15.952Z,9.63
2022-11-27T18:58:42.853Z,8.23
2022-11-27T19:01:12.283Z,8.63
2022-11-27T19:03:42.905Z,8.73
2022-11-27T19:06:10.435Z,9.23
2022-11-27T19:08:37.813Z,9.57
2022-11-27T19:11:09.132Z,9.33
2022-11-27T19:13:36.347Z,9.47
2022-11-27T19:16:16.504Z,8.93
2022-11-27T19:18:43.398Z,10.30
2022-11-27T19:21:11.077Z,8.33
2022-11-27T19:23:39.926Z,9.87
2022-11-27T19:26:08.286Z,9.83
2022-11-27T19:28:34.850Z,9.77
2022-11-27T19:31:05.697Z,10.50
2022-11-27T19:33:32.390Z,9.80
2022-11-27T19:36:03.212Z,10.10
2022-11-27T19:38:29.825Z,9.47
2022-11-27T19:40:56.734Z,10.20
2022-11-27T19:43:23.949Z,12.77
2022-11-27T19:45:50.525Z,11.27
2022-11-27T19:48:22.704Z,10.33
2022-11-27T19:50:51.689Z,10.93
2022-11-27T19:53:19.079Z,11.30
2022-11-27T19:55:52.199Z,11.00
2022-11-27T19:58:18.680Z,11.63
2022-11-27T20:00:45.344Z,10.70
2022-11-27T20:03:11.892Z,11.10
2022-11-27T20:05:38.590Z,11.23
2022-11-27T20:08:05.168Z,12.63
2022-11-27T20:10:31.794Z,11.90
2022-11-27T20:13:02.188Z,12.50
2022-11-27T20:15:29.347Z,11.63
2022-11-27T20:17:56.824Z,11.70
2022-11-27T20:20:23.296Z,13.10
2022-11-27T20:22:50.403Z,12.73
2022-11-27T20:25:19.793Z,13.03
2022-11-27T20:27:47.845Z,12.27
2022-11-27T20:30:14.462Z,11.60
2022-11-27T20:32:41.013Z,12.87
2022-11-27T20:35:07.842Z,12.73
2022-11-27T20:37:34.960Z,13.20
2022-11-27T20:40:02.878Z,13.80
2022-11-27T20:42:29.681Z,12.57
2022-11-27T20:44:56.297Z,12.83
2022-11-27T20:47:22.836Z,12.67
2022-11-27T20:49:49.383Z,12.67
2022-11-27T20:52:16.647Z,12.63
2022-11-27T20:54:43.178Z,12.87
2022-11-27T20:57:14.162Z,12.67
2022-11-27T20:59:41.454Z,12.10
2022-11-27T21:02:12.025Z,11.93
2022-11-27T21:04:38.649Z,11.57
2022-11-27T21:07:05.254Z,11.50
2022-11-27T21:09:32.267Z,12.13
2022-11-27T21:11:58.818Z,11.20
2022-11-27T21:14:26.053Z,11.57
2022-11-27T21:16:53.886Z,11.93
2022-11-27T21:19:22.413Z,11.80
2022-11-27T21:21:49.486Z,12.10
2022-11-27T21:24:16.764Z,11.50
2022-11-27T21:26:43.960Z,11.47
2022-11-27T21:29:12.781Z,11.83
2022-11-27T21:31:45.098Z,11.30
2022-11-27T21:34:13.825Z,11.00
2022-11-27T21:36:40.413Z,12.23
2022-11-27T21:39:08.697Z,11.87
2022-11-27T21:41:35.758Z,12.20
2022-11-27T21:44:03.411Z,11.50
2022-11-27T21:46:30.081Z,12.13
2022-11-27T21:48:58.121Z,11.07
2022-11-27T21:51:26.049Z,11.70
2022-11-27T21:53:53.595Z,11.67
2022-11-27T21:56:24.590Z,12.00
2022-11-27T21:58:51.445Z,11.00
2022-11-27T22:01:19.678Z,11.53
2022-11-27T22:03:51.641Z,11.40
2022-11-27T22:06:19.017Z,11.27
2022-11-27T22:08:46.391Z,11.07
2022-11-27T22:11:14.714Z,11.17
2022-11-27T22:13:41.797Z,10.67
2022-11-27T22:16:12.815Z,10.33
2022-11-27T22:18:39.859Z,10.83
2022-11-27T22:21:08.928Z,10.30
2022-11-27T22:23:35.962Z,9.93
2022-11-27T22:26:03.353Z,9.67
2022-11-27T22:28:30.406Z,9.90
2022-11-27T22:30:57.188Z,9.63
2022-11-27T22:33:24.365Z,10.33
2022-11-27T22:35:51.300Z,10.20
2022-11-27T22:38:17.879Z,10.17
2022-11-27T22:40:44.705Z,10.67
2022-11-27T22:43:11.272Z,10.53
2022-11-27T22:45:39.168Z,10.20
2022-11-27T22:48:06.169Z,9.97
2022-11-27T22:50:32.861Z,9.93
2022-11-27T22:52:59.641Z,10.20
2022-11-27T22:55:28.125Z,9.77
2022-11-27T22:57:54.643Z,10.57
2022-11-27T23:00:21.579Z,10.00
2022-11-27T23:02:48.185Z,11.27
2022-11-27T23:05:15.078Z,10.80
2022-11-27T23:07:41.698Z,10.73
2022-11-27T23:10:09.410Z,13.30
2022-11-27T23:12:35.950Z,11.57
2022-11-27T23:15:02.480Z,10.83
2022-11-27T23:17:29.023Z,12.47
2022-11-27T23:19:55.516Z,11.13
2022-11-27T23:22:22.049Z,12.37
2022-11-27T23:24:48.904Z,11.93
2022-11-27T23:27:15.416Z,12.27
2022-11-27T23:29:42.010Z,12.43
2022-11-27T23:32:08.582Z,11.80
2022-11-27T23:34:35.259Z,12.10
2022-11-27T23:37:01.768Z,12.03
2022-11-27T23:39:28.267Z,11.93
2022-11-27T23:41:54.731Z,12.83
2022-11-27T23:44:21.669Z,12.17
2022-11-27T23:46:48.225Z,12.07
2022-11-27T23:49:15.051Z,12.63
2022-11-27T23:51:41.590Z,12.20
2022-11-27T23:54:09.397Z,12.00
2022-11-27T23:56:36.632Z,11.93
2022-11-27T23:59:03.179Z,12.13
